Time;durP1;ratioP1;P1;durP2;ratioP2;P2;SDS_P1;SDS_P2;PMS_P1;PMS_P2;Temp;Humidity;BMP_temperature;BMP_pressure;BME280_temperature;BME280_humidity;BME280_pressure;Samples;Min_cycle;Max_cycle;Signal;HPM_P1;HPM_P2
2024/04/11 00:02:05;;;;;;;1.50;1.20;;;9.40;98.20;;;;;;5348320;26;20809;-79
2024/04/11 00:04:34;;;;;;;1.50;1.17;;;9.40;98.20;;;;;;5358787;26;20481;-79
2024/04/11 00:07:02;;;;;;;1.50;1.20;;;9.30;98.20;;;;;;5348672;26;20488;-78
2024/04/11 00:09:29;;;;;;;1.50;1.10;;;9.30;98.20;;;;;;5366871;26;20571;-79
2024/04/11 00:11:58;;;;;;;1.50;1.10;;;9.30;98.20;;;;;;5355333;26;21086;-79
2024/04/11 00:14:24;;;;;;;1.50;1.10;;;9.30;98.20;;;;;;5355854;26;20593;-78
2024/04/11 00:16:53;;;;;;;1.50;1.20;;;9.20;98.20;;;;;;5344424;26;21397;-79
2024/04/11 00:19:18;;;;;;;1.50;1.20;;;9.20;98.20;;;;;;5366854;26;21399;-80
2024/04/11 00:21:50;;;;;;;1.50;1.20;;;9.10;98.20;;;;;;5344282;26;20565;-80
2024/04/11 00:24:16;;;;;;;1.50;1.20;;;9.10;98.20;;;;;;5368358;26;20315;-79
2024/04/11 00:26:46;;;;;;;1.50;1.30;;;9.10;98.20;;;;;;5349178;26;20567;-80
2024/04/11 00:29:12;;;;;;;1.50;1.20;;;9.10;98.20;;;;;;5368718;26;20540;-79
2024/04/11 00:31:41;;;;;;;1.50;1.20;;;9.10;98.20;;;;;;5337971;26;20501;-80
2024/04/11 00:34:13;;;;;;;1.50;1.20;;;9.10;98.20;;;;;;5355708;26;20562;-79
2024/04/11 00:36:44;;;;;;;1.50;1.13;;;9.10;98.20;;;;;;5343122;26;20544;-79
2024/04/11 00:39:18;;;;;;;1.50;1.20;;;9.10;98.20;;;;;;5360266;26;20460;-79
2024/04/11 00:41:47;;;;;;;1.50;1.20;;;9.00;98.20;;;;;;5356657;26;20520;-78
2024/04/11 00:44:16;;;;;;;1.50;1.20;;;9.00;98.20;;;;;;5367492;26;20670;-79
2024/04/11 00:46:45;;;;;;;1.50;1.20;;;9.10;98.20;;;;;;5349323;26;20501;-78
2024/04/11 00:49:11;;;;;;;1.50;1.20;;;9.00;98.20;;;;;;5367074;26;20601;-79
2024/04/11 00:51:40;;;;;;;1.50;1.20;;;9.00;98.20;;;;;;5337591;26;20493;-79
2024/04/11 00:54:06;;;;;;;1.50;1.20;;;9.00;98.20;;;;;;5329425;26;20571;-81
2024/04/11 00:56:40;;;;;;;1.50;1.20;;;9.00;98.20;;;;;;5349362;26;20499;-79
2024/04/11 00:59:07;;;;;;;1.50;1.30;;;9.00;98.20;;;;;;5364778;26;20522;-79
2024/04/11 01:01:35;;;;;;;1.50;1.20;;;8.90;98.20;;;;;;5343536;26;20563;-81
2024/04/11 01:04:03;;;;;;;1.50;1.30;;;8.90;98.20;;;;;;5343607;26;20538;-79
2024/04/11 01:06:52;;;;;;;1.50;1.17;;;8.90;98.20;;;;;;5333380;26;21050;-76
2024/04/11 01:09:19;;;;;;;1.50;1.20;;;8.90;98.20;;;;;;5344448;26;20498;-78
2024/04/11 01:11:51;;;;;;;1.50;1.40;;;8.90;98.20;;;;;;5340927;26;20505;-79
2024/04/11 01:14:16;;;;;;;1.50;1.20;;;8.90;98.20;;;;;;5352793;26;20526;-78
2024/04/11 01:16:45;;;;;;;1.50;1.23;;;8.90;98.20;;;;;;5359869;26;20593;-77
2024/04/11 01:19:11;;;;;;;1.50;1.30;;;8.90;98.20;;;;;;5380568;26;20232;-79
2024/04/11 01:21:41;;;;;;;1.50;1.30;;;8.80;98.20;;;;;;5345899;26;20536;-79
2024/04/11 01:24:13;;;;;;;1.50;1.10;;;8.80;98.20;;;;;;5353321;26;20282;-80
2024/04/11 01:26:39;;;;;;;1.50;1.20;;;8.80;98.20;;;;;;5330431;26;20489;-78
2024/04/11 01:29:08;;;;;;;1.50;1.20;;;8.80;98.20;;;;;;5347656;26;21133;-80
2024/04/11 01:31:34;;;;;;;1.50;1.20;;;8.80;98.20;;;;;;5320599;26;20259;-81
2024/04/11 01:34:02;;;;;;;1.50;1.10;;;8.80;98.20;;;;;;5353211;26;20596;-79
2024/04/11 01:36:28;;;;;;;1.50;1.20;;;8.80;98.20;;;;;;5342264;26;20497;-80
2024/04/11 01:38:56;;;;;;;1.50;1.20;;;8.80;98.20;;;;;;5361595;26;20524;-79
2024/04/11 01:41:25;;;;;;;1.50;1.20;;;8.80;98.20;;;;;;5340673;26;20282;-78
2024/04/11 01:43:54;;;;;;;1.50;1.20;;;8.70;98.20;;;;;;5346657;26;20517;-77
2024/04/11 01:46:20;;;;;;;1.50;1.10;;;8.70;98.20;;;;;;5342679;26;20553;-79
2024/04/11 01:48:49;;;;;;;1.50;1.20;;;8.70;98.20;;;;;;5363191;26;20812;-79
2024/04/11 01:51:14;;;;;;;1.50;1.20;;;8.70;98.20;;;;;;5334176;26;20255;-80
2024/04/11 01:53:45;;;;;;;1.50;1.20;;;8.70;98.20;;;;;;5366802;26;20509;-80
2024/04/11 01:56:11;;;;;;;1.50;1.27;;;8.60;98.20;;;;;;5353287;26;20271;-79
2024/04/11 01:58:42;;;;;;;1.50;1.17;;;8.60;98.20;;;;;;5367603;26;20457;-79
2024/04/11 02:01:09;;;;;;;1.50;1.40;;;8.60;98.20;;;;;;5333968;26;20535;-81
2024/04/11 02:03:38;;;;;;;1.50;1.20;;;8.70;98.20;;;;;;5359413;26;21041;-81
2024/04/11 02:06:04;;;;;;;1.50;1.20;;;8.60;98.20;;;;;;5349843;26;20579;-80
2024/04/11 02:08:33;;;;;;;1.50;1.20;;;8.60;98.20;;;;;;5365652;26;20472;-81
2024/04/11 02:11:00;;;;;;;1.50;1.20;;;8.60;98.20;;;;;;5337979;26;21048;-81
2024/04/11 02:13:28;;;;;;;1.50;1.20;;;8.60;98.20;;;;;;5330055;26;20475;-81
2024/04/11 02:15:57;;;;;;;1.50;1.23;;;8.60;98.20;;;;;;5329066;26;20549;-79
2024/04/11 02:18:26;;;;;;;1.50;1.10;;;8.70;98.20;;;;;;5342152;26;20467;-78
2024/04/11 02:20:53;;;;;;;1.50;1.20;;;8.70;98.20;;;;;;5315480;26;20474;-79
2024/04/11 02:23:21;;;;;;;1.50;1.20;;;8.80;98.20;;;;;;5350683;26;20536;-80
2024/04/11 02:25:51;;;;;;;1.50;1.23;;;8.80;98.20;;;;;;5319324;26;20482;-80
2024/04/11 02:28:24;;;;;;;1.50;1.23;;;8.80;98.20;;;;;;5319932;26;20486;-79
2024/04/11 02:30:51;;;;;;;1.50;1.20;;;8.90;98.20;;;;;;5308675;26;20734;-78
2024/04/11 02:33:25;;;;;;;1.50;1.20;;;8.90;98.20;;;;;;5323878;26;20599;-79
2024/04/11 02:35:50;;;;;;;1.50;1.10;;;9.00;98.20;;;;;;5323322;26;20470;-79
2024/04/11 02:38:20;;;;;;;1.50;1.20;;;9.00;98.20;;;;;;5339803;26;20599;-80
2024/04/11 02:40:46;;;;;;;1.50;1.30;;;9.00;98.20;;;;;;5314030;26;20233;-80
2024/04/11 02:43:15;;;;;;;1.50;1.10;;;9.00;98.20;;;;;;5354291;26;21003;-80
2024/04/11 02:45:46;;;;;;;1.50;1.20;;;9.00;98.20;;;;;;5349939;26;20522;-80
2024/04/11 02:48:14;;;;;;;1.50;1.20;;;9.10;98.20;;;;;;5373620;26;20470;-79
2024/04/11 02:50:43;;;;;;;1.50;1.10;;;9.10;98.20;;;;;;5347384;26;20489;-79
2024/04/11 02:53:11;;;;;;;1.50;1.20;;;9.10;98.20;;;;;;5361615;26;20592;-80
2024/04/11 02:55:38;;;;;;;1.50;1.20;;;9.10;98.20;;;;;;5327181;26;20788;-81
2024/04/11 02:58:06;;;;;;;1.50;1.17;;;9.20;98.20;;;;;;5355114;26;20573;-80
2024/04/11 03:00:32;;;;;;;1.50;1.10;;;9.20;98.20;;;;;;5339492;26;20477;-80
2024/04/11 03:03:00;;;;;;;1.50;1.20;;;9.20;98.20;;;;;;5363515;26;20553;-80
2024/04/11 03:05:26;;;;;;;1.50;1.10;;;9.20;98.20;;;;;;5347648;26;20789;-81
2024/04/11 03:07:58;;;;;;;1.50;1.10;;;9.30;98.20;;;;;;5352957;26;20670;-79
2024/04/11 03:10:23;;;;;;;1.47;1.10;;;9.30;98.20;;;;;;5330511;26;20570;-80
2024/04/11 03:12:52;;;;;;;1.50;1.20;;;9.30;98.20;;;;;;5377640;26;20999;-81
2024/04/11 03:15:18;;;;;;;1.50;1.20;;;9.30;98.20;;;;;;5458153;21;20263;-78
2024/04/11 03:17:47;;;;;;;1.50;1.20;;;9.30;98.20;;;;;;5453419;25;20623;-78
2024/04/11 03:20:17;;;;;;;1.50;1.20;;;9.30;98.20;;;;;;5446808;26;20525;-78
2024/04/11 03:22:46;;;;;;;1.50;1.20;;;9.40;98.20;;;;;;5422249;26;20541;-79
2024/04/11 03:25:14;;;;;;;1.50;1.10;;;9.40;98.20;;;;;;5424236;26;20479;-78
2024/04/11 03:27:42;;;;;;;1.50;1.20;;;9.40;98.20;;;;;;5397087;26;20487;-79
2024/04/11 03:30:09;;;;;;;1.50;1.20;;;9.40;98.20;;;;;;5400542;26;20471;-78
2024/04/11 03:32:38;;;;;;;1.50;1.20;;;9.50;98.20;;;;;;5422865;26;20606;-78
2024/04/11 03:35:04;;;;;;;1.50;1.27;;;9.50;98.20;;;;;;5403692;26;20578;-78
2024/04/11 03:37:33;;;;;;;1.50;1.20;;;9.50;98.20;;;;;;5394431;26;20486;-78
2024/04/11 03:39:59;;;;;;;2.33;2.13;;;9.60;98.20;;;;;;5396459;26;20629;-78
2024/04/11 03:42:31;;;;;;;1.50;1.17;;;9.60;98.20;;;;;;5390014;26;20880;-78
2024/04/11 03:45:10;;;;;;;1.50;1.20;;;9.60;98.20;;;;;;5394987;26;20249;-78
2024/04/11 03:47:37;;;;;;;1.47;1.10;;;9.60;98.20;;;;;;5377738;26;20510;-78
2024/04/11 03:50:07;;;;;;;1.50;1.20;;;9.60;98.20;;;;;;5400648;26;21149;-79
2024/04/11 03:52:33;;;;;;;1.50;1.10;;;9.70;98.20;;;;;;5425424;26;20521;-79
2024/04/11 03:55:01;;;;;;;1.50;1.20;;;9.70;98.20;;;;;;5417278;26;20519;-78
2024/04/11 03:57:30;;;;;;;1.43;1.10;;;9.70;98.20;;;;;;5426462;26;20344;-78
2024/04/11 03:59:59;;;;;;;1.50;1.20;;;9.80;98.20;;;;;;5415242;26;20541;-78
2024/04/11 04:02:24;;;;;;;1.50;1.10;;;9.80;98.20;;;;;;5449054;26;20496;-78
2024/04/11 04:04:53;;;;;;;1.50;1.20;;;9.90;98.20;;;;;;5452858;26;20470;-78
2024/04/11 04:07:19;;;;;;;1.50;1.10;;;10.00;98.20;;;;;;5463613;26;20274;-78
2024/04/11 04:09:48;;;;;;;1.50;1.10;;;10.00;98.20;;;;;;5455375;26;20575;-79
2024/04/11 04:12:16;;;;;;;1.50;1.10;;;10.10;98.20;;;;;;5466286;26;20254;-78
2024/04/11 04:14:48;;;;;;;1.50;1.10;;;10.10;98.20;;;;;;5460615;26;20466;-79
2024/04/11 04:17:16;;;;;;;1.50;1.20;;;10.20;98.20;;;;;;5457055;26;20485;-78
2024/04/11 04:19:45;;;;;;;1.50;1.10;;;10.30;98.20;;;;;;5442177;26;20599;-79
2024/04/11 04:22:16;;;;;;;1.50;1.10;;;10.30;98.20;;;;;;5456870;26;20618;-78
2024/04/11 04:24:42;;;;;;;1.50;1.30;;;10.40;98.20;;;;;;5441440;26;20513;-80
2024/04/11 04:27:11;;;;;;;1.50;1.10;;;10.40;98.20;;;;;;5457372;26;21065;-78
2024/04/11 04:29:38;;;;;;;1.50;1.20;;;10.50;98.20;;;;;;5453751;26;20236;-78
2024/04/11 04:32:09;;;;;;;1.50;1.10;;;10.50;98.20;;;;;;5446144;26;20595;-79
2024/04/11 04:34:35;;;;;;;1.47;1.10;;;10.50;98.20;;;;;;5455575;26;20538;-78
2024/04/11 04:37:04;;;;;;;1.50;1.10;;;10.50;98.20;;;;;;5445825;26;20496;-79
2024/04/11 04:39:30;;;;;;;1.50;1.10;;;10.50;98.20;;;;;;5440842;26;20289;-79
2024/04/11 04:41:59;;;;;;;1.50;1.20;;;10.60;98.20;;;;;;5449035;26;20567;-78
2024/04/11 04:44:28;;;;;;;1.50;1.10;;;10.60;98.20;;;;;;5445720;26;20581;-78
2024/04/11 04:46:56;;;;;;;1.50;1.10;;;10.60;98.20;;;;;;5443766;26;20915;-79
2024/04/11 04:49:25;;;;;;;1.50;1.10;;;10.70;98.20;;;;;;5459294;26;20516;-78
2024/04/11 04:51:53;;;;;;;1.50;1.10;;;10.70;98.20;;;;;;5450418;26;20491;-78
2024/04/11 04:54:19;;;;;;;1.93;1.67;;;10.70;98.20;;;;;;5461518;26;20920;-78
2024/04/11 04:56:52;;;;;;;1.50;1.10;;;10.70;98.20;;;;;;5436464;26;20500;-79
2024/04/11 04:59:17;;;;;;;1.50;1.20;;;10.70;97.70;;;;;;5462539;26;20465;-80
2024/04/11 05:01:47;;;;;;;1.50;1.10;;;10.70;97.90;;;;;;5433765;26;20556;-79
2024/04/11 05:04:13;;;;;;;1.50;1.17;;;10.80;97.90;;;;;;5443383;26;20360;-78
2024/04/11 05:06:44;;;;;;;1.50;1.20;;;10.80;97.90;;;;;;5432436;26;20480;-79
2024/04/11 05:09:10;;;;;;;1.50;1.20;;;10.80;97.90;;;;;;5461418;26;20469;-79
2024/04/11 05:11:40;;;;;;;1.50;1.10;;;10.80;98.00;;;;;;5446182;26;20536;-79
2024/04/11 05:14:08;;;;;;;1.50;1.10;;;10.80;98.00;;;;;;5461467;26;20237;-79
2024/04/11 05:16:38;;;;;;;1.50;1.10;;;10.90;98.00;;;;;;5431628;26;20559;-79
2024/04/11 05:19:04;;;;;;;1.50;1.10;;;10.80;98.20;;;;;;5455470;26;20482;-78
2024/04/11 05:21:32;;;;;;;1.50;1.20;;;10.80;98.20;;;;;;5436315;26;20994;-78
2024/04/11 05:24:01;;;;;;;1.50;1.10;;;10.90;98.20;;;;;;5462375;26;20517;-77
2024/04/11 05:26:30;;;;;;;1.50;1.00;;;10.80;98.20;;;;;;5429128;26;20674;-78
2024/04/11 05:28:57;;;;;;;1.50;1.10;;;10.90;98.20;;;;;;5460121;26;20545;-78
2024/04/11 05:31:28;;;;;;;1.50;1.20;;;10.90;98.20;;;;;;5442632;26;20547;-78
2024/04/11 05:33:59;;;;;;;1.40;1.00;;;10.80;98.20;;;;;;5448822;26;20473;-78
2024/04/11 05:36:28;;;;;;;1.50;1.10;;;10.90;98.20;;;;;;5429968;26;21228;-78
2024/04/11 05:38:54;;;;;;;1.50;1.10;;;10.80;98.20;;;;;;5438897;26;20470;-77
2024/04/11 05:41:26;;;;;;;1.50;1.10;;;10.90;98.20;;;;;;5439957;26;20543;-77
2024/04/11 05:43:52;;;;;;;1.50;1.10;;;10.80;98.20;;;;;;5433720;26;20855;-78
2024/04/11 05:46:22;;;;;;;1.50;1.00;;;10.80;98.20;;;;;;5438993;26;20605;-78
2024/04/11 05:48:49;;;;;;;1.50;1.00;;;10.90;98.20;;;;;;5463725;26;20798;-77
2024/04/11 05:51:18;;;;;;;1.50;1.10;;;10.90;98.20;;;;;;5438244;26;20500;-77
2024/04/11 05:53:45;;;;;;;1.50;1.20;;;10.90;98.20;;;;;;5447857;26;20862;-78
2024/04/11 05:56:15;;;;;;;1.50;1.10;;;11.00;98.20;;;;;;5413345;26;20504;-78
2024/04/11 05:58:45;;;;;;;1.50;1.10;;;11.00;98.20;;;;;;5454281;26;20830;-78
2024/04/11 06:01:15;;;;;;;1.50;1.20;;;11.10;98.20;;;;;;5411043;26;20620;-77
2024/04/11 06:03:46;;;;;;;1.50;1.03;;;11.10;98.20;;;;;;5440843;26;20586;-79
2024/04/11 06:06:15;;;;;;;1.50;1.10;;;11.20;98.20;;;;;;5411698;26;20580;-78
2024/04/11 06:08:41;;;;;;;1.50;1.10;;;11.30;98.20;;;;;;5446675;26;21026;-78
2024/04/11 06:11:10;;;;;;;1.50;1.10;;;11.40;98.20;;;;;;5436030;26;20563;-79
2024/04/11 06:13:36;;;;;;;1.50;1.10;;;11.40;98.20;;;;;;5466942;26;20564;-78
2024/04/11 06:16:08;;;;;;;1.50;1.10;;;11.40;98.20;;;;;;5433590;26;20489;-78
2024/04/11 06:18:35;;;;;;;1.50;1.10;;;11.50;98.20;;;;;;5454749;26;20610;-78
2024/04/11 06:21:05;;;;;;;1.47;1.00;;;11.50;98.20;;;;;;5445312;26;20521;-78
2024/04/11 06:23:30;;;;;;;1.47;1.00;;;11.50;98.20;;;;;;5444859;26;20523;-79
2024/04/11 06:26:00;;;;;;;1.50;1.10;;;11.50;98.20;;;;;;5418564;26;20530;-79
2024/04/11 06:28:26;;;;;;;1.50;1.20;;;11.50;98.20;;;;;;5449809;26;20245;-79
2024/04/11 06:30:55;;;;;;;1.50;1.10;;;11.50;98.20;;;;;;5428656;26;20584;-78
2024/04/11 06:33:23;;;;;;;1.50;1.00;;;11.60;98.20;;;;;;5456633;26;20590;-79
2024/04/11 06:35:54;;;;;;;1.50;1.10;;;11.70;98.20;;;;;;5430860;26;20470;-78
2024/04/11 06:38:20;;;;;;;1.50;1.10;;;11.70;98.20;;;;;;5455899;26;20540;-78
2024/04/11 06:40:52;;;;;;;1.50;1.07;;;11.70;98.20;;;;;;5438144;26;20556;-79
2024/04/11 06:43:18;;;;;;;1.50;1.10;;;11.80;98.20;;;;;;5470863;26;21168;-78
2024/04/11 06:45:48;;;;;;;1.47;1.00;;;11.80;98.20;;;;;;5444423;26;20875;-79
2024/04/11 06:48:15;;;;;;;1.50;1.00;;;11.90;98.20;;;;;;5405611;26;20476;-79
2024/04/11 06:50:46;;;;;;;1.47;1.00;;;11.90;98.20;;;;;;5431892;26;20768;-79
2024/04/11 06:53:12;;;;;;;1.50;1.00;;;11.90;98.20;;;;;;5408039;26;20557;-79
2024/04/11 06:55:45;;;;;;;1.47;1.00;;;11.90;98.20;;;;;;5436146;26;20514;-78
2024/04/11 06:58:11;;;;;;;1.50;1.10;;;11.90;98.20;;;;;;5385735;26;20890;-79
2024/04/11 07:00:41;;;;;;;1.50;1.10;;;12.00;98.20;;;;;;5406496;26;20468;-78
2024/04/11 07:03:16;;;;;;;1.50;1.10;;;12.00;98.20;;;;;;5417723;26;20413;-79
2024/04/11 07:05:55;;;;;;;2.13;1.93;;;12.00;98.20;;;;;;5405272;26;20585;-78
2024/04/11 07:08:29;;;;;;;1.50;1.10;;;12.00;98.20;;;;;;5391654;26;20546;-78
2024/04/11 07:10:58;;;;;;;1.60;1.30;;;12.00;98.20;;;;;;5397067;26;20463;-79
2024/04/11 07:13:25;;;;;;;1.43;1.00;;;12.10;98.20;;;;;;5433629;26;20527;-79
2024/04/11 07:15:58;;;;;;;1.50;1.10;;;12.10;98.20;;;;;;5395180;26;20521;-79
2024/04/11 07:18:38;;;;;;;1.50;1.07;;;12.20;98.20;;;;;;5419003;26;20847;-79
2024/04/11 07:21:13;;;;;;;1.50;1.20;;;12.20;98.20;;;;;;5399331;26;21038;-78
2024/04/11 07:23:42;;;;;;;1.50;1.10;;;12.30;98.20;;;;;;5437687;26;20919;-78
2024/04/11 07:26:11;;;;;;;1.50;1.10;;;12.30;98.20;;;;;;5387956;26;20484;-78
2024/04/11 07:28:39;;;;;;;1.50;1.10;;;12.40;98.20;;;;;;5426937;26;20492;-78
2024/04/11 07:31:08;;;;;;;1.50;1.10;;;12.40;98.20;;;;;;5394379;26;20549;-79
2024/04/11 07:33:35;;;;;;;1.50;1.10;;;12.50;98.20;;;;;;5442875;26;20542;-78
2024/04/11 07:36:07;;;;;;;1.47;1.00;;;12.50;98.20;;;;;;5397220;26;20688;-78
2024/04/11 07:38:35;;;;;;;1.47;1.00;;;12.60;98.20;;;;;;5435169;26;20498;-79
2024/04/11 07:41:16;;;;;;;1.43;1.00;;;12.50;98.20;;;;;;5394736;26;21095;-78
2024/04/11 07:43:44;;;;;;;1.50;1.00;;;12.60;98.20;;;;;;5433884;26;20918;-79
2024/04/11 07:46:14;;;;;;;1.50;1.10;;;12.60;98.20;;;;;;5401511;26;20871;-78
2024/04/11 07:48:41;;;;;;;1.50;1.00;;;12.70;98.20;;;;;;5431792;26;20757;-78
2024/04/11 07:51:12;;;;;;;1.50;1.00;;;12.70;98.20;;;;;;5403243;26;21218;-78
2024/04/11 07:53:41;;;;;;;1.50;1.10;;;12.70;98.20;;;;;;5444099;26;21073;-78
2024/04/11 07:56:11;;;;;;;1.50;1.10;;;12.80;98.20;;;;;;5399903;26;20998;-78
2024/04/11 07:58:38;;;;;;;1.50;1.00;;;12.90;98.20;;;;;;5433258;26;20564;-78
2024/04/11 08:01:08;;;;;;;1.50;1.07;;;12.90;98.20;;;;;;5398357;26;20517;-79
2024/04/11 08:03:34;;;;;;;1.50;1.00;;;13.00;98.20;;;;;;5426034;26;20520;-79
2024/04/11 08:06:03;;;;;;;1.50;1.10;;;13.00;98.20;;;;;;5388292;26;21071;-78
2024/04/11 08:08:28;;;;;;;1.50;1.10;;;13.00;98.20;;;;;;5436948;26;20477;-79
2024/04/11 08:11:06;;;;;;;1.50;1.00;;;13.20;98.20;;;;;;5401129;26;20523;-78
2024/04/11 08:13:33;;;;;;;1.50;1.00;;;13.20;98.20;;;;;;5457593;26;20783;-78
2024/04/11 08:16:01;;;;;;;1.50;1.00;;;13.30;98.10;;;;;;5429359;26;20582;-78
2024/04/11 08:18:27;;;;;;;1.50;1.00;;;13.30;98.20;;;;;;5424469;26;20472;-78
2024/04/11 08:20:55;;;;;;;1.43;0.90;;;13.40;98.20;;;;;;5400767;26;20522;-79
2024/04/11 08:23:22;;;;;;;1.50;1.00;;;13.50;98.20;;;;;;5471383;26;20273;-78
2024/04/11 08:25:52;;;;;;;1.50;1.00;;;13.70;98.00;;;;;;5434499;26;20509;-79
2024/04/11 08:28:21;;;;;;;1.50;1.00;;;13.80;97.50;;;;;;5468067;26;20812;-78
2024/04/11 08:30:51;;;;;;;1.50;1.00;;;14.00;97.00;;;;;;5423511;26;20461;-79
2024/04/11 08:33:20;;;;;;;1.43;1.00;;;14.10;96.70;;;;;;5446190;26;20522;-80
2024/04/11 08:35:52;;;;;;;1.50;1.10;;;14.20;95.60;;;;;;5439165;26;20522;-79
2024/04/11 08:38:22;;;;;;;1.50;1.10;;;14.40;95.90;;;;;;5452434;26;20530;-79
2024/04/11 08:40:57;;;;;;;1.50;1.10;;;14.50;95.40;;;;;;5443323;26;20470;-79
2024/04/11 08:43:27;;;;;;;1.50;1.00;;;14.50;94.70;;;;;;5470880;26;20628;-78
2024/04/11 08:45:59;;;;;;;1.50;1.00;;;14.60;94.50;;;;;;5438865;26;20478;-76
2024/04/11 08:48:25;;;;;;;1.50;1.00;;;14.70;94.40;;;;;;5455664;26;20507;-79
2024/04/11 08:50:55;;;;;;;1.43;1.00;;;14.70;93.90;;;;;;5405997;26;20861;-78
2024/04/11 08:53:24;;;;;;;1.50;1.10;;;14.60;94.10;;;;;;5431732;26;20521;-79
2024/04/11 08:55:57;;;;;;;1.50;1.00;;;14.60;94.60;;;;;;5389012;26;20460;-79
2024/04/11 08:58:25;;;;;;;1.43;0.97;;;14.70;95.30;;;;;;5450013;26;21024;-78
2024/04/11 09:00:58;;;;;;;1.50;1.10;;;14.80;94.30;;;;;;5413313;26;20531;-79
2024/04/11 09:03:26;;;;;;;1.50;1.00;;;14.70;94.30;;;;;;5455047;26;20661;-79
2024/04/11 09:05:54;;;;;;;1.50;0.90;;;14.70;95.00;;;;;;5403277;26;20481;-79
2024/04/11 09:08:25;;;;;;;1.43;1.00;;;14.90;95.40;;;;;;5448039;26;20589;-78
2024/04/11 09:10:54;;;;;;;1.40;0.90;;;15.00;94.90;;;;;;5400070;26;20990;-78
2024/04/11 09:13:23;;;;;;;1.50;0.90;;;15.10;94.20;;;;;;5430015;26;20542;-79
2024/04/11 09:16:04;;;;;;;1.50;0.90;;;15.20;94.90;;;;;;5408233;26;20475;-79
2024/04/11 09:18:30;;;;;;;1.50;1.00;;;15.30;94.60;;;;;;5416523;21;20507;-80
2024/04/11 09:21:04;;;;;;;1.50;1.00;;;15.40;94.60;;;;;;5332761;26;20542;-80
2024/04/11 09:23:34;;;;;;;1.50;1.00;;;15.50;94.90;;;;;;5377843;26;20474;-80
2024/04/11 09:26:03;;;;;;;1.50;1.10;;;15.70;94.40;;;;;;5333744;26;20580;-82
2024/04/11 09:28:31;;;;;;;1.47;0.90;;;15.80;94.30;;;;;;5386513;26;20608;-82
2024/04/11 09:31:04;;;;;;;1.47;0.90;;;15.80;94.30;;;;;;5334969;26;20482;-80
2024/04/11 09:33:31;;;;;;;1.50;1.00;;;16.00;94.10;;;;;;5362850;26;20484;-80
2024/04/11 09:36:04;;;;;;;1.47;0.90;;;16.10;94.10;;;;;;5337322;26;20478;-80
2024/04/11 09:38:31;;;;;;;1.50;1.00;;;16.30;93.20;;;;;;5391387;26;20523;-81
2024/04/11 09:41:04;;;;;;;1.47;1.00;;;16.30;93.40;;;;;;5336427;26;20522;-81
2024/04/11 09:43:34;;;;;;;1.43;0.90;;;16.30;93.60;;;;;;5384767;26;20518;-80
2024/04/11 09:46:06;;;;;;;1.47;0.90;;;16.30;93.40;;;;;;5336196;26;20489;-80
2024/04/11 09:48:38;;;;;;;1.47;0.90;;;16.30;93.50;;;;;;5385265;26;20474;-80
2024/04/11 09:51:10;;;;;;;1.43;0.90;;;16.40;93.70;;;;;;5331258;26;20538;-80
2024/04/11 09:53:36;;;;;;;1.47;1.00;;;16.50;93.40;;;;;;5366872;26;22059;-81
2024/04/11 09:56:08;;;;;;;1.50;1.00;;;16.50;93.20;;;;;;5341560;26;20506;-78
2024/04/11 09:58:38;;;;;;;1.47;0.90;;;16.50;93.60;;;;;;5400324;26;20548;-80
2024/04/11 10:01:29;;;;;;;1.50;0.90;;;16.50;93.20;;;;;;5351253;26;20538;-80
2024/04/11 10:03:59;;;;;;;1.50;1.00;;;16.50;93.40;;;;;;5383461;26;20464;-80
2024/04/11 10:06:30;;;;;;;1.50;0.90;;;16.40;93.50;;;;;;5352209;26;20554;-80
2024/04/11 10:09:11;;;;;;;1.47;1.00;;;16.30;93.60;;;;;;5365951;26;20564;-80
2024/04/11 10:11:48;;;;;;;1.50;0.90;;;16.30;94.20;;;;;;5345892;26;20488;-80
2024/04/11 10:14:16;;;;;;;1.43;0.90;;;16.20;94.80;;;;;;5353693;26;21023;-79
2024/04/11 10:16:51;;;;;;;1.50;1.00;;;16.30;94.60;;;;;;5347645;26;20548;-80
2024/04/11 10:19:26;;;;;;;1.50;0.90;;;16.30;94.30;;;;;;5351552;26;20479;-81
2024/04/11 10:22:04;;;;;;;1.50;1.00;;;16.40;95.10;;;;;;5348451;26;20499;-81
2024/04/11 10:24:32;;;;;;;1.50;0.90;;;16.50;95.00;;;;;;5346316;26;21043;-80
2024/04/11 10:27:17;;;;;;;1.43;0.90;;;16.50;95.00;;;;;;5350970;26;20485;-80
2024/04/11 10:29:46;;;;;;;1.50;0.90;;;16.50;94.90;;;;;;5356733;26;21127;-80
2024/04/11 10:32:22;;;;;;;1.47;0.90;;;16.60;95.10;;;;;;5354629;26;20644;-81
2024/04/11 10:34:55;;;;;;;1.50;0.90;;;16.60;95.40;;;;;;5352728;26;20982;-81
2024/04/11 10:37:25;;;;;;;1.50;1.00;;;16.70;95.30;;;;;;5348209;26;20568;-80
2024/04/11 10:39:57;;;;;;;1.50;0.90;;;16.80;95.70;;;;;;5347592;26;20592;-79
2024/04/11 10:42:36;;;;;;;1.50;0.90;;;16.90;94.60;;;;;;5347863;26;20493;-80
2024/04/11 10:45:04;;;;;;;1.47;0.90;;;17.00;94.80;;;;;;5341840;26;20531;-80
2024/04/11 10:47:35;;;;;;;1.47;0.90;;;17.00;94.60;;;;;;5350339;26;21268;-81
2024/04/11 10:50:02;;;;;;;1.50;0.90;;;17.00;95.00;;;;;;5341125;26;20522;-80
2024/04/11 10:52:32;;;;;;;1.47;0.90;;;17.10;94.80;;;;;;5371809;26;20534;-81
2024/04/11 10:55:12;;;;;;;1.50;1.00;;;17.20;94.80;;;;;;5337711;26;20474;-79
2024/04/11 10:57:42;;;;;;;1.50;1.00;;;17.20;95.30;;;;;;5362311;26;20508;-81
2024/04/11 11:00:10;;;;;;;1.43;1.00;;;17.30;95.30;;;;;;5338183;26;20534;-78
2024/04/11 11:02:44;;;;;;;1.50;0.90;;;17.40;95.70;;;;;;5362108;26;21197;-79
2024/04/11 11:05:10;;;;;;;1.50;0.90;;;17.50;95.30;;;;;;5347232;26;20740;-81
2024/04/11 11:07:40;;;;;;;1.50;0.90;;;17.60;96.00;;;;;;5363292;26;20484;-80
2024/04/11 11:10:11;;;;;;;1.50;0.90;;;17.60;95.90;;;;;;5343889;26;20478;-81
2024/04/11 11:12:42;;;;;;;1.50;0.90;;;17.60;95.60;;;;;;5358451;26;20493;-81
2024/04/11 11:15:13;;;;;;;1.47;0.90;;;17.60;95.60;;;;;;5340339;26;20584;-81
2024/04/11 11:17:45;;;;;;;1.50;0.90;;;17.60;96.10;;;;;;5362376;26;20594;-81
2024/04/11 11:20:13;;;;;;;1.50;0.90;;;17.50;96.40;;;;;;5339019;26;20534;-81
2024/04/11 11:22:44;;;;;;;1.50;0.90;;;17.40;96.40;;;;;;5362036;26;20508;-81
2024/04/11 11:25:10;;;;;;;1.47;0.90;;;17.40;97.00;;;;;;5340213;26;20482;-77
2024/04/11 11:27:38;;;;;;;1.47;0.90;;;17.40;97.90;;;;;;5358777;26;20576;-80
2024/04/11 11:30:06;;;;;;;1.47;0.90;;;17.40;97.90;;;;;;5343908;26;20482;-80
2024/04/11 11:32:35;;;;;;;1.47;0.90;;;17.50;98.20;;;;;;5360431;26;20546;-79
2024/04/11 11:35:05;;;;;;;1.47;0.90;;;17.60;98.20;;;;;;5344679;26;20466;-81
2024/04/11 11:37:35;;;;;;;1.50;1.00;;;17.60;98.20;;;;;;5360619;26;20599;-81
2024/04/11 11:40:32;;;;;;;1.47;0.90;;;17.60;98.20;;;;;;5347249;26;20470;-80
2024/04/11 11:42:56;;;;;;;1.43;0.90;;;17.60;98.20;;;;;;5364867;26;20614;-81
2024/04/11 11:45:27;;;;;;;1.50;1.37;;;17.60;98.20;;;;;;5346822;26;20544;-81
2024/04/11 11:47:57;;;;;;;1.47;0.90;;;17.50;98.20;;;;;;5367123;26;20552;-80
2024/04/11 11:50:35;;;;;;;1.47;0.90;;;17.40;98.20;;;;;;5341097;26;20493;-80
2024/04/11 11:53:24;;;;;;;1.50;0.90;;;17.30;98.20;;;;;;5363789;26;20491;-81
2024/04/11 11:55:55;;;;;;;1.50;0.90;;;17.20;98.20;;;;;;5338041;26;21020;-79
2024/04/11 11:58:25;;;;;;;1.43;0.90;;;17.20;98.20;;;;;;5370255;26;20538;-81
2024/04/11 12:00:59;;;;;;;1.50;1.00;;;17.20;98.20;;;;;;5333236;26;20473;-80
2024/04/11 12:03:31;;;;;;;1.47;1.00;;;17.20;98.20;;;;;;5360292;26;20541;-81
2024/04/11 12:05:59;;;;;;;1.47;0.90;;;17.20;98.20;;;;;;5341739;26;20517;-80
2024/04/11 12:08:28;;;;;;;1.43;0.90;;;17.30;98.20;;;;;;5359576;26;20538;-80
2024/04/11 12:13:45;;;;;;;1.43;0.90;;;17.40;98.20;;;;;;5360507;26;20503;-81
2024/04/11 12:16:15;;;;;;;1.40;0.90;;;17.40;98.20;;;;;;5334975;26;20541;-79
2024/04/11 12:18:46;;;;;;;1.40;0.90;;;17.40;98.20;;;;;;5369337;26;20562;-80
2024/04/11 12:21:18;;;;;;;1.47;0.90;;;17.40;98.20;;;;;;5336372;26;20604;-80
2024/04/11 12:23:47;;;;;;;1.47;0.90;;;17.40;98.20;;;;;;5367424;26;20570;-81
2024/04/11 12:26:14;;;;;;;1.43;0.97;;;17.40;98.20;;;;;;5343885;26;21066;-81
2024/04/11 12:28:45;;;;;;;1.47;0.90;;;17.40;98.20;;;;;;5382823;26;20553;-79
2024/04/11 12:31:15;;;;;;;1.50;0.90;;;17.40;98.20;;;;;;5335377;26;20544;-81
2024/04/11 12:33:46;;;;;;;1.50;1.00;;;17.30;98.20;;;;;;5371602;26;20519;-81
2024/04/11 12:39:12;;;;;;;1.43;0.90;;;17.40;98.20;;;;;;5375041;26;21084;-81
2024/04/11 12:41:40;;;;;;;1.47;0.90;;;17.40;98.20;;;;;;5347557;26;20562;-80
2024/04/11 12:44:11;;;;;;;1.47;0.90;;;17.40;98.20;;;;;;5366745;26;20555;-81
2024/04/11 12:46:38;;;;;;;1.40;0.90;;;17.40;98.20;;;;;;5347930;26;20499;-79
2024/04/11 12:49:16;;;;;;;1.50;1.00;;;17.40;98.20;;;;;;5364585;26;20564;-81
2024/04/11 12:51:45;;;;;;;1.43;0.90;;;17.50;98.20;;;;;;5345583;26;20499;-80
2024/04/11 12:54:26;;;;;;;1.40;0.90;;;17.60;98.20;;;;;;5352992;26;20553;-79
2024/04/11 12:56:55;;;;;;;1.47;0.90;;;17.60;98.20;;;;;;5339502;26;20496;-82
2024/04/11 12:59:28;;;;;;;1.47;0.90;;;17.70;98.20;;;;;;5353361;26;20486;-81
2024/04/11 13:01:55;;;;;;;1.47;0.90;;;17.80;98.20;;;;;;5363099;26;20623;-82
2024/04/11 13:04:28;;;;;;;1.43;0.90;;;17.90;98.20;;;;;;5363965;26;20481;-81
2024/04/11 13:07:01;;;;;;;1.47;0.93;;;18.00;98.20;;;;;;5373087;26;20491;-80
2024/04/11 13:09:48;;;;;;;1.50;0.90;;;18.20;98.20;;;;;;5343439;26;20470;-80